Time;durP1;ratioP1;P1;durP2;ratioP2;P2;SDS_P1;SDS_P2;PMS_P1;PMS_P2;Temp;Humidity;BMP_temperature;BMP_pressure;BME280_temperature;BME280_humidity;BME280_pressure;Samples;Min_cycle;Max_cycle;Signal;HPM_P1;HPM_P2
2024/04/11 00:01:15;;;;;;;5.38;3.50;;;8.20;74.50;;;;;;5528258;25;20210;-71
2024/04/11 00:03:41;;;;;;;7.22;2.90;;;8.20;74.90;;;;;;5527846;25;20213;-71
2024/04/11 00:06:09;;;;;;;5.23;2.60;;;8.30;74.70;;;;;;5527637;25;20571;-70
2024/04/11 00:08:36;;;;;;;5.25;2.15;;;8.30;74.40;;;;;;5528652;25;20439;-71
2024/04/11 00:11:04;;;;;;;5.82;2.95;;;8.30;74.10;;;;;;5527660;25;20281;-71
2024/04/11 00:13:30;;;;;;;5.38;2.50;;;8.40;73.90;;;;;;5527675;25;20687;-71
2024/04/11 00:16:04;;;;;;;3.20;2.17;;;8.40;73.20;;;;;;5527698;25;20213;-71
2024/04/11 00:18:30;;;;;;;6.55;2.40;;;8.40;73.00;;;;;;5527587;25;20558;-70
2024/04/11 00:20:59;;;;;;;4.45;2.70;;;8.40;73.20;;;;;;5527594;25;20213;-71
2024/04/11 00:23:26;;;;;;;8.75;2.47;;;8.40;73.00;;;;;;5527549;25;20543;-71
2024/04/11 00:25:59;;;;;;;4.25;3.00;;;8.30;73.30;;;;;;5527552;25;20221;-72
2024/04/11 00:28:25;;;;;;;6.60;3.65;;;8.30;73.30;;;;;;5527403;25;20249;-71
2024/04/11 00:30:54;;;;;;;6.15;3.13;;;8.40;72.80;;;;;;5527363;25;20255;-71
2024/04/11 00:33:23;;;;;;;3.67;2.65;;;8.40;72.70;;;;;;5527951;25;20213;-71
2024/04/11 00:35:52;;;;;;;5.38;3.55;;;8.30;73.60;;;;;;5526318;25;20277;-71
2024/04/11 00:38:19;;;;;;;4.25;2.80;;;8.30;74.30;;;;;;5527155;25;20213;-71
2024/04/11 00:40:55;;;;;;;4.97;3.30;;;8.30;74.30;;;;;;5527415;25;20312;-71
2024/04/11 00:43:21;;;;;;;3.67;2.25;;;8.30;74.50;;;;;;5527215;25;20225;-70
2024/04/11 00:45:50;;;;;;;5.25;2.50;;;8.30;74.80;;;;;;5527407;25;20251;-71
2024/04/11 00:48:17;;;;;;;3.88;2.53;;;8.30;74.80;;;;;;5527052;25;20254;-71
2024/04/11 00:50:50;;;;;;;12.35;3.30;;;8.30;74.70;;;;;;5527219;25;20217;-71
2024/04/11 00:53:17;;;;;;;10.23;2.88;;;8.30;74.60;;;;;;5527203;25;20213;-71
2024/04/11 00:55:45;;;;;;;5.90;3.38;;;8.30;74.80;;;;;;5527252;25;20225;-71
2024/04/11 00:58:12;;;;;;;5.03;2.92;;;8.30;76.20;;;;;;5527175;25;20677;-71
2024/04/11 01:00:42;;;;;;;10.13;2.75;;;8.30;76.10;;;;;;5526806;25;20794;-71
2024/04/11 01:03:08;;;;;;;5.30;2.45;;;8.30;75.40;;;;;;5527220;25;20214;-71
2024/04/11 01:05:37;;;;;;;4.07;2.53;;;8.30;74.80;;;;;;5526833;25;20229;-71
2024/04/11 01:08:07;;;;;;;9.55;2.55;;;8.30;74.90;;;;;;5526722;25;20244;-70
2024/04/11 01:10:37;;;;;;;4.25;2.55;;;8.30;75.10;;;;;;5526975;25;20213;-71
2024/04/11 01:13:05;;;;;;;4.68;2.67;;;8.30;75.40;;;;;;5526790;25;20209;-71
2024/04/11 01:15:35;;;;;;;5.22;2.92;;;8.40;75.40;;;;;;5526737;25;20225;-71
2024/04/11 01:18:01;;;;;;;5.60;3.00;;;8.30;75.30;;;;;;5526601;25;20225;-71
2024/04/11 01:20:29;;;;;;;4.15;3.10;;;8.40;75.30;;;;;;5526628;25;20217;-71
2024/04/11 01:22:58;;;;;;;4.45;2.70;;;8.40;74.80;;;;;;5526610;25;20209;-71
2024/04/11 01:25:29;;;;;;;7.45;3.83;;;8.40;75.00;;;;;;5526519;25;20256;-71
2024/04/11 01:27:56;;;;;;;4.53;2.90;;;8.30;74.80;;;;;;5526525;25;20217;-71
2024/04/11 01:30:24;;;;;;;5.40;3.10;;;8.30;75.10;;;;;;5526842;25;20232;-71
2024/04/11 01:32:50;;;;;;;4.68;2.67;;;8.30;75.20;;;;;;5526293;25;20252;-71
2024/04/11 01:35:19;;;;;;;5.68;2.65;;;8.20;75.80;;;;;;5526376;25;20221;-71
2024/04/11 01:37:46;;;;;;;3.45;2.05;;;8.20;76.20;;;;;;5526683;25;20214;-71
2024/04/11 01:40:18;;;;;;;4.53;3.13;;;8.30;76.50;;;;;;5526608;25;20302;-71
2024/04/11 01:42:44;;;;;;;5.28;3.28;;;8.30;76.40;;;;;;5526148;25;20321;-71
2024/04/11 01:45:13;;;;;;;5.63;3.55;;;8.30;76.00;;;;;;5526287;25;20607;-71
2024/04/11 01:47:41;;;;;;;10.88;3.40;;;8.30;75.80;;;;;;5526551;25;20213;-71
2024/04/11 01:50:10;;;;;;;4.22;3.10;;;8.30;75.40;;;;;;5529806;25;20209;-71
2024/04/11 01:52:35;;;;;;;4.47;2.85;;;8.30;75.30;;;;;;5529954;25;20253;-71
2024/04/11 01:55:04;;;;;;;4.83;2.80;;;8.30;75.00;;;;;;5530043;25;20356;-71
2024/04/11 01:57:34;;;;;;;4.97;2.90;;;8.30;74.70;;;;;;5529727;25;20486;-71
2024/04/11 02:00:12;;;;;;;3.85;2.83;;;8.30;74.40;;;;;;5529991;25;20247;-71
2024/04/11 02:02:39;;;;;;;5.47;2.72;;;8.20;74.30;;;;;;5529709;25;20248;-71
2024/04/11 02:05:09;;;;;;;4.10;3.03;;;8.20;74.90;;;;;;5529344;25;20551;-71
2024/04/11 02:07:36;;;;;;;6.10;3.60;;;8.20;75.00;;;;;;5530104;25;20210;-71
2024/04/11 02:10:05;;;;;;;5.55;2.95;;;8.20;75.30;;;;;;5529889;25;20220;-71
2024/04/11 02:12:33;;;;;;;5.05;3.63;;;8.20;75.30;;;;;;5529400;25;20251;-71
2024/04/11 02:15:06;;;;;;;3.42;2.25;;;8.10;75.20;;;;;;5529429;25;20217;-71
2024/04/11 02:17:32;;;;;;;4.95;3.55;;;8.10;75.40;;;;;;5529755;25;20217;-71
2024/04/11 02:20:10;;;;;;;4.10;2.60;;;8.00;76.30;;;;;;5529813;25;20244;-71
2024/04/11 02:22:36;;;;;;;4.15;2.45;;;8.10;76.00;;;;;;5529559;25;20209;-71
2024/04/11 02:25:07;;;;;;;4.07;2.55;;;8.00;76.60;;;;;;5529207;25;20285;-71
2024/04/11 02:27:35;;;;;;;3.58;2.85;;;8.00;77.00;;;;;;5529716;25;20741;-71
2024/04/11 02:30:05;;;;;;;5.95;2.95;;;7.90;77.20;;;;;;5529545;25;20217;-71
2024/04/11 02:32:31;;;;;;;4.80;2.42;;;7.90;78.00;;;;;;5529858;25;20253;-71
2024/04/11 02:35:05;;;;;;;8.15;2.55;;;7.80;77.70;;;;;;5529805;25;20225;-71
2024/04/11 02:37:31;;;;;;;4.85;2.58;;;7.90;78.10;;;;;;5529161;25;20209;-71
2024/04/11 02:39:59;;;;;;;4.47;2.45;;;7.80;77.20;;;;;;5529270;25;20758;-71
2024/04/11 02:42:25;;;;;;;9.35;2.90;;;7.80;76.70;;;;;;5529027;25;20248;-71
2024/04/11 02:44:57;;;;;;;4.07;2.43;;;7.80;76.30;;;;;;5528831;25;20217;-71
2024/04/11 02:47:23;;;;;;;5.65;2.38;;;7.80;76.00;;;;;;5528999;25;20630;-70
2024/04/11 02:49:52;;;;;;;2.87;1.80;;;7.80;76.30;;;;;;5528887;25;20469;-71
2024/04/11 02:52:18;;;;;;;4.47;2.20;;;7.80;76.60;;;;;;5528841;25;20494;-71
2024/04/11 02:54:47;;;;;;;5.97;2.50;;;7.70;77.30;;;;;;5528779;25;20217;-71
2024/04/11 02:57:13;;;;;;;5.05;2.50;;;7.70;76.00;;;;;;5528881;25;20612;-71
2024/04/11 02:59:43;;;;;;;5.43;2.53;;;7.70;75.40;;;;;;5528107;25;20487;-71
2024/04/11 03:02:11;;;;;;;4.45;2.42;;;7.70;75.20;;;;;;5528771;25;20775;-70
2024/04/11 03:04:42;;;;;;;3.53;1.73;;;7.60;75.20;;;;;;5528642;25;20329;-71
2024/04/11 03:07:08;;;;;;;4.60;2.35;;;7.50;75.40;;;;;;5529049;25;20683;-71
2024/04/11 03:09:36;;;;;;;3.80;2.23;;;7.50;75.30;;;;;;5528848;25;20255;-71
2024/04/11 03:12:03;;;;;;;5.20;2.00;;;7.50;75.50;;;;;;5528521;25;20540;-71
2024/04/11 03:14:32;;;;;;;4.20;2.20;;;7.40;75.10;;;;;;5528404;25;20435;-71
2024/04/11 03:16:59;;;;;;;3.67;2.20;;;7.40;74.50;;;;;;5529208;26;20213;-71
2024/04/11 03:19:30;;;;;;;4.93;1.90;;;7.40;75.30;;;;;;5528617;25;20217;-71
2024/04/11 03:21:56;;;;;;;5.07;2.15;;;7.40;76.00;;;;;;5528347;25;20217;-71
2024/04/11 03:24:25;;;;;;;3.10;2.13;;;7.30;75.30;;;;;;5528659;25;20217;-71
2024/04/11 03:26:51;;;;;;;3.38;2.05;;;7.30;75.20;;;;;;5528239;25;20450;-71
2024/04/11 03:29:19;;;;;;;4.77;2.50;;;7.30;75.50;;;;;;5528078;25;20264;-71
2024/04/11 03:31:46;;;;;;;4.47;2.75;;;7.20;75.90;;;;;;5528071;25;20441;-71
2024/04/11 03:34:14;;;;;;;3.15;2.00;;;7.20;76.40;;;;;;5528194;25;20213;-71
2024/04/11 03:36:44;;;;;;;4.10;2.90;;;7.20;76.00;;;;;;5528403;25;20264;-71
2024/04/11 03:39:13;;;;;;;2.90;2.10;;;7.20;76.30;;;;;;5528094;25;20316;-71
2024/04/11 03:41:40;;;;;;;5.70;2.55;;;7.20;76.60;;;;;;5528977;25;20210;-70
2024/04/11 03:44:10;;;;;;;4.10;2.67;;;7.20;77.00;;;;;;5528037;25;20217;-71
2024/04/11 03:46:39;;;;;;;3.00;2.00;;;7.10;76.10;;;;;;5528510;25;20687;-71
2024/04/11 03:49:08;;;;;;;4.70;2.88;;;7.10;75.60;;;;;;5528501;25;20213;-71
2024/04/11 03:51:38;;;;;;;3.72;2.42;;;7.10;75.40;;;;;;5528007;25;20571;-71
2024/04/11 03:54:10;;;;;;;3.20;1.88;;;7.00;74.50;;;;;;5527800;25;20248;-71
2024/04/11 03:56:37;;;;;;;3.85;2.10;;;7.00;74.60;;;;;;5528054;25;20257;-71
2024/04/11 03:59:06;;;;;;;6.45;2.70;;;7.00;74.70;;;;;;5527911;25;20700;-71
2024/04/11 04:01:34;;;;;;;3.60;2.60;;;6.90;75.60;;;;;;5527832;25;20525;-70
2024/04/11 04:04:04;;;;;;;3.30;2.45;;;6.90;76.00;;;;;;5523621;25;20229;-71
2024/04/11 04:06:33;;;;;;;5.82;2.60;;;6.90;76.00;;;;;;5528022;25;20225;-71
2024/04/11 04:09:07;;;;;;;5.18;2.50;;;6.90;75.90;;;;;;5527478;25;20269;-71
2024/04/11 04:11:36;;;;;;;3.97;2.45;;;6.80;75.60;;;;;;5526170;25;20229;-71
2024/04/11 04:14:08;;;;;;;4.70;2.30;;;6.70;75.90;;;;;;5527613;25;20217;-71
2024/04/11 04:16:38;;;;;;;3.67;1.98;;;6.70;76.20;;;;;;5527500;25;20252;-71
2024/04/11 04:19:04;;;;;;;2.85;1.80;;;6.80;73.80;;;;;;5527493;25;20741;-71
2024/04/11 04:21:34;;;;;;;3.13;1.70;;;6.70;71.60;;;;;;5527440;25;20217;-70
2024/04/11 04:24:05;;;;;;;3.55;2.15;;;6.60;70.60;;;;;;5527497;25;20255;-71
2024/04/11 04:26:34;;;;;;;4.40;4.00;;;6.50;70.90;;;;;;5527775;25;20221;-70
2024/04/11 04:29:04;;;;;;;4.18;1.60;;;6.50;71.40;;;;;;5527673;25;20213;-71
2024/04/11 04:31:33;;;;;;;3.40;2.00;;;6.40;72.50;;;;;;5527269;26;20248;-71
2024/04/11 04:34:01;;;;;;;3.22;1.77;;;6.30;73.10;;;;;;5527285;25;20316;-71
2024/04/11 04:36:33;;;;;;;7.95;2.40;;;6.30;73.40;;;;;;5527262;25;20305;-71
2024/04/11 04:39:00;;;;;;;3.88;2.35;;;6.30;73.60;;;;;;5527559;25;20213;-70
2024/04/11 04:41:30;;;;;;;5.05;2.05;;;6.30;74.20;;;;;;5522603;25;20237;-71
2024/04/11 04:43:57;;;;;;;4.10;2.55;;;6.30;75.20;;;;;;5525885;25;20217;-71
2024/04/11 04:46:32;;;;;;;2.85;1.60;;;6.20;75.30;;;;;;5526500;25;20592;-70
2024/04/11 04:49:00;;;;;;;3.53;1.83;;;6.20;75.80;;;;;;5526490;25;20212;-71
2024/04/11 04:51:31;;;;;;;2.90;1.65;;;6.20;76.30;;;;;;5526555;25;20255;-71
2024/04/11 04:53:59;;;;;;;3.97;1.98;;;6.20;76.30;;;;;;5526815;25;20210;-71
2024/04/11 04:56:32;;;;;;;3.80;2.47;;;6.20;76.80;;;;;;5526742;25;20269;-71
2024/04/11 04:58:59;;;;;;;6.05;2.60;;;6.20;76.70;;;;;;5526479;25;20573;-71
2024/04/11 05:01:33;;;;;;;4.57;2.45;;;6.20;76.90;;;;;;5526640;26;20686;-70
2024/04/11 05:03:59;;;;;;;3.53;2.25;;;6.20;77.10;;;;;;5526941;25;20222;-71
2024/04/11 05:06:28;;;;;;;3.13;1.80;;;6.20;77.10;;;;;;5526910;25;20648;-71
2024/04/11 05:08:55;;;;;;;3.90;3.28;;;6.30;77.80;;;;;;5526330;25;20217;-71
2024/04/11 05:11:31;;;;;;;4.90;2.67;;;6.40;77.90;;;;;;5526406;25;20217;-71
2024/04/11 05:13:57;;;;;;;4.65;3.00;;;6.40;77.70;;;;;;5526553;25;20555;-71
2024/04/11 05:16:26;;;;;;;3.85;2.58;;;6.50;78.00;;;;;;5526655;25;20217;-70
2024/04/11 05:18:54;;;;;;;3.60;2.70;;;6.60;77.90;;;;;;5526286;25;20251;-70
2024/04/11 05:21:24;;;;;;;6.75;3.83;;;6.60;77.60;;;;;;5526567;25;20734;-70
2024/04/11 05:23:50;;;;;;;5.78;3.55;;;6.70;77.80;;;;;;5529854;25;20209;-71
2024/04/11 05:26:23;;;;;;;5.40;3.47;;;6.70;77.80;;;;;;5529849;25;20213;-71
2024/04/11 05:28:51;;;;;;;5.90;3.75;;;6.70;77.80;;;;;;5530063;25;20213;-71
2024/04/11 05:31:25;;;;;;;9.93;3.70;;;6.80;77.80;;;;;;5529720;25;20224;-71
2024/04/11 05:33:55;;;;;;;7.03;3.60;;;6.80;77.80;;;;;;5529800;25;20759;-70
2024/04/11 05:36:25;;;;;;;5.50;3.80;;;6.90;77.70;;;;;;5529981;25;20217;-70
2024/04/11 05:38:51;;;;;;;5.50;3.33;;;6.90;77.30;;;;;;5529661;25;20268;-72
2024/04/11 05:41:20;;;;;;;5.03;3.03;;;6.90;77.70;;;;;;5529586;25;20281;-71
2024/04/11 05:43:49;;;;;;;4.75;3.45;;;7.00;77.60;;;;;;5529624;25;20240;-70
2024/04/11 05:46:19;;;;;;;7.45;3.67;;;7.00;77.90;;;;;;5529559;25;20569;-71
2024/04/11 05:48:45;;;;;;;5.35;4.25;;;7.00;77.90;;;;;;5529991;25;20228;-70
2024/04/11 05:51:16;;;;;;;6.30;3.53;;;7.00;78.30;;;;;;5529716;25;20249;-71
2024/04/11 05:53:42;;;;;;;5.03;3.80;;;7.10;78.40;;;;;;5529544;25;20245;-70
2024/04/11 05:56:12;;;;;;;11.10;4.40;;;7.20;78.50;;;;;;5529645;25;20217;-70
2024/04/11 05:58:39;;;;;;;5.63;3.90;;;7.30;79.60;;;;;;5529407;25;20454;-71
2024/04/11 06:01:09;;;;;;;5.22;3.40;;;7.30;79.70;;;;;;5529251;25;20217;-71
2024/04/11 06:03:36;;;;;;;6.60;3.83;;;7.30;79.70;;;;;;5529167;25;20217;-71
2024/04/11 06:06:05;;;;;;;5.40;3.45;;;7.40;80.40;;;;;;5529450;25;20229;-70
2024/04/11 06:08:33;;;;;;;4.32;2.80;;;7.40;80.90;;;;;;5529664;26;20217;-70
2024/04/11 06:11:02;;;;;;;8.38;3.75;;;7.50;81.30;;;;;;5529527;25;20740;-71
2024/04/11 06:13:28;;;;;;;9.32;3.75;;;7.50;81.80;;;;;;5529163;25;20614;-71
2024/04/11 06:15:57;;;;;;;5.87;4.33;;;7.60;82.70;;;;;;5528981;25;20315;-71
2024/04/11 06:18:28;;;;;;;7.13;3.40;;;7.60;82.90;;;;;;5528999;26;20446;-71
2024/04/11 06:20:57;;;;;;;6.30;3.40;;;7.70;83.40;;;;;;5529132;25;20253;-71
2024/04/11 06:23:26;;;;;;;6.93;3.60;;;7.80;83.70;;;;;;5529296;25;20213;-70
2024/04/11 06:25:57;;;;;;;5.65;3.50;;;7.80;84.10;;;;;;5528977;25;20244;-70
2024/04/11 06:28:28;;;;;;;6.50;4.03;;;7.90;84.80;;;;;;5528888;25;20308;-71
2024/04/11 06:30:54;;;;;;;5.35;3.75;;;8.00;84.70;;;;;;5529256;25;20261;-70
2024/04/11 06:33:24;;;;;;;7.72;4.53;;;8.10;84.10;;;;;;5528290;25;20213;-70
2024/04/11 06:35:51;;;;;;;12.75;4.10;;;8.20;84.20;;;;;;5528838;25;20213;-71
2024/04/11 06:38:20;;;;;;;5.13;3.78;;;8.20;84.40;;;;;;5529328;25;20240;-71
2024/04/11 06:40:48;;;;;;;5.10;3.80;;;8.40;84.60;;;;;;5528689;25;20248;-71
2024/04/11 06:43:21;;;;;;;5.85;4.00;;;8.40;84.20;;;;;;5528521;25;20795;-71
2024/04/11 06:45:48;;;;;;;6.30;4.53;;;8.50;83.40;;;;;;5528736;25;20213;-71
2024/04/11 06:48:18;;;;;;;5.53;3.10;;;8.60;83.20;;;;;;5528718;25;20626;-71
2024/04/11 06:50:44;;;;;;;8.48;4.00;;;8.70;82.80;;;;;;5528899;25;20621;-71
2024/04/11 06:53:13;;;;;;;6.22;4.13;;;8.70;82.40;;;;;;5528606;25;20695;-71
2024/04/11 06:55:39;;;;;;;6.70;4.30;;;8.70;81.30;;;;;;5528581;25;20563;-70
2024/04/11 06:58:10;;;;;;;6.30;4.45;;;8.80;81.10;;;;;;5528532;25;20225;-71
2024/04/11 07:00:41;;;;;;;9.40;4.53;;;8.90;80.70;;;;;;5528916;25;20209;-70
2024/04/11 07:03:16;;;;;;;5.47;3.92;;;8.90;80.00;;;;;;5528428;25;20209;-70
2024/04/11 07:05:51;;;;;;;6.22;4.53;;;9.00;80.20;;;;;;5528545;25;20267;-71
2024/04/11 07:08:25;;;;;;;6.35;4.82;;;9.00;80.50;;;;;;5528542;25;20217;-71
2024/04/11 07:10:53;;;;;;;6.80;4.65;;;9.10;80.10;;;;;;5528313;25;20217;-71
2024/04/11 07:13:23;;;;;;;6.53;4.35;;;9.20;80.20;;;;;;5528218;25;20217;-71
2024/04/11 07:15:52;;;;;;;8.30;4.53;;;9.20;80.00;;;;;;5528278;25;20251;-70
2024/04/11 07:18:22;;;;;;;4.95;3.88;;;9.30;80.20;;;;;;5528098;25;20206;-70
2024/04/11 07:20:50;;;;;;;6.90;4.70;;;9.40;80.70;;;;;;5528192;25;20233;-70
2024/04/11 07:23:22;;;;;;;7.18;4.60;;;9.50;79.20;;;;;;5528529;25;20285;-70
2024/04/11 07:25:50;;;;;;;7.15;5.03;;;9.70;80.60;;;;;;5528213;25;20205;-71
2024/04/11 07:28:20;;;;;;;7.38;5.00;;;9.90;80.30;;;;;;5528967;25;20217;-71
2024/04/11 07:30:45;;;;;;;5.25;3.78;;;10.20;79.50;;;;;;5528261;25;20213;-71
2024/04/11 07:33:17;;;;;;;6.50;4.40;;;10.50;78.80;;;;;;5528292;25;20263;-71
2024/04/11 07:35:43;;;;;;;6.10;4.28;;;11.00;74.70;;;;;;5527967;25;20453;-70
2024/04/11 07:38:13;;;;;;;5.70;4.47;;;11.40;74.50;;;;;;5527993;25;20266;-70
2024/04/11 07:40:45;;;;;;;6.80;4.93;;;11.90;71.50;;;;;;5527998;25;20462;-71
2024/04/11 07:43:15;;;;;;;8.20;5.25;;;12.30;71.20;;;;;;5527906;25;20215;-71
2024/04/11 07:45:41;;;;;;;7.67;4.20;;;12.70;69.40;;;;;;5527878;25;20573;-71
2024/04/11 07:48:12;;;;;;;5.50;4.03;;;13.10;69.20;;;;;;5527932;25;20493;-71
2024/04/11 07:50:44;;;;;;;4.47;3.10;;;13.70;67.30;;;;;;5527628;26;20521;-71
2024/04/11 07:53:14;;;;;;;6.50;3.97;;;14.20;64.00;;;;;;5527805;25;20518;-71
2024/04/11 07:55:41;;;;;;;5.40;3.13;;;14.70;62.20;;;;;;5527742;25;20457;-72
2024/04/11 07:58:10;;;;;;;5.97;3.37;;;15.20;60.90;;;;;;5527717;25;20458;-71
2024/04/11 08:00:39;;;;;;;4.37;2.77;;;15.70;59.50;;;;;;5527557;25;20454;-72
2024/04/11 08:03:08;;;;;;;7.50;3.47;;;16.20;56.80;;;;;;5527561;25;20559;-71
2024/04/11 08:05:34;;;;;;;4.70;2.73;;;16.60;55.60;;;;;;5527306;25;20458;-72
2024/04/11 08:08:06;;;;;;;8.97;3.17;;;17.10;55.90;;;;;;5527717;25;20497;-71
2024/04/11 08:10:32;;;;;;;5.50;3.57;;;17.60;54.60;;;;;;5527648;25;20506;-72
2024/04/11 08:13:01;;;;;;;5.53;3.40;;;18.00;50.90;;;;;;5527635;25;20534;-71
2024/04/11 08:15:27;;;;;;;4.30;2.50;;;18.40;50.40;;;;;;5527970;25;20501;-71
2024/04/11 08:17:55;;;;;;;4.33;2.73;;;18.80;49.00;;;;;;5527615;25;21040;-71
2024/04/11 08:20:21;;;;;;;6.93;2.40;;;19.20;49.00;;;;;;5527804;26;20442;-71
2024/04/11 08:22:50;;;;;;;5.73;2.63;;;19.40;47.00;;;;;;5527192;25;20587;-72
2024/04/11 08:25:18;;;;;;;5.10;2.70;;;19.70;45.30;;;;;;5527442;25;20764;-71
2024/04/11 08:27:48;;;;;;;5.07;2.37;;;20.00;44.60;;;;;;5527059;25;20517;-71
2024/04/11 08:30:15;;;;;;;3.63;2.33;;;20.30;41.70;;;;;;5527076;25;20494;-72
2024/04/11 08:32:45;;;;;;;9.30;3.10;;;20.40;42.00;;;;;;5527338;25;20446;-71
2024/04/11 08:35:12;;;;;;;5.60;2.20;;;20.50;41.10;;;;;;5527214;25;20498;-71
2024/04/11 08:37:41;;;;;;;5.60;1.80;;;20.70;40.50;;;;;;5527058;25;20442;-72
2024/04/11 08:40:10;;;;;;;3.83;1.90;;;21.00;41.10;;;;;;5524478;25;20779;-72
2024/04/11 08:42:43;;;;;;;4.57;3.00;;;21.30;42.20;;;;;;5526609;25;20453;-72
2024/04/11 08:45:10;;;;;;;3.90;2.07;;;21.70;41.00;;;;;;5527058;26;21030;-69
2024/04/11 08:47:39;;;;;;;4.73;2.30;;;22.10;40.20;;;;;;5526979;26;20449;-69
2024/04/11 08:50:06;;;;;;;4.87;2.40;;;22.40;37.50;;;;;;5526063;25;20454;-69
2024/04/11 08:52:39;;;;;;;4.03;2.60;;;22.50;35.80;;;;;;5526910;25;20559;-69
2024/04/11 08:55:06;;;;;;;14.27;3.20;;;22.70;36.90;;;;;;5527358;25;20761;-69
2024/04/11 08:57:34;;;;;;;5.80;2.60;;;22.80;36.30;;;;;;5525609;25;20513;-69
2024/04/11 09:00:09;;;;;;;5.03;2.70;;;22.90;34.40;;;;;;5526923;25;20449;-69
2024/04/11 09:02:41;;;;;;;6.67;2.30;;;23.10;35.50;;;;;;5526702;25;20554;-69
2024/04/11 09:05:10;;;;;;;3.97;2.10;;;23.30;34.90;;;;;;5526260;25;20466;-69
2024/04/11 09:07:44;;;;;;;3.97;2.07;;;23.30;33.60;;;;;;5526825;25;20474;-70
2024/04/11 09:10:12;;;;;;;5.60;1.77;;;23.50;33.00;;;;;;5526499;25;20453;-70
2024/04/11 09:12:46;;;;;;;4.70;1.73;;;23.60;32.80;;;;;;5526778;25;20539;-69
2024/04/11 09:15:15;;;;;;;4.40;1.83;;;23.80;31.90;;;;;;5526706;25;20453;-69
2024/04/11 09:17:45;;;;;;;2.93;1.73;;;23.90;33.70;;;;;;5526097;25;21066;-69
2024/04/11 09:20:12;;;;;;;4.63;2.50;;;23.90;31.20;;;;;;5526143;25;20465;-69
2024/04/11 09:22:50;;;;;;;3.87;2.03;;;24.10;31.00;;;;;;5526243;25;20445;-69
2024/04/11 09:25:17;;;;;;;5.80;2.10;;;24.10;31.60;;;;;;5526151;25;20498;-69
2024/04/11 09:27:50;;;;;;;4.97;1.93;;;24.30;31.10;;;;;;5526088;25;20777;-69
2024/04/11 09:30:21;;;;;;;2.90;1.63;;;24.50;30.10;;;;;;5526034;25;20457;-71
2024/04/11 09:32:51;;;;;;;3.07;1.73;;;24.70;30.80;;;;;;5526384;25;20450;-71
2024/04/11 09:35:20;;;;;;;3.07;1.60;;;24.80;31.70;;;;;;5526141;25;20785;-71
2024/04/11 09:37:59;;;;;;;3.50;2.03;;;25.00;32.60;;;;;;5525969;25;20492;-71
2024/04/11 09:40:27;;;;;;;3.90;2.00;;;25.20;32.10;;;;;;5525983;25;20512;-71
2024/04/11 09:43:03;;;;;;;4.43;1.70;;;25.50;31.10;;;;;;5525815;25;20988;-73
2024/04/11 09:45:35;;;;;;;4.03;1.90;;;25.80;31.10;;;;;;5525750;25;20562;-71
2024/04/11 09:48:06;;;;;;;4.40;1.80;;;26.00;30.00;;;;;;5525832;25;20498;-71
2024/04/11 09:50:36;;;;;;;4.97;2.50;;;25.90;29.40;;;;;;5525685;25;20790;-72
2024/04/11 09:53:05;;;;;;;3.90;1.93;;;26.00;29.40;;;;;;5526400;25;20567;-71
2024/04/11 09:55:33;;;;;;;4.30;2.13;;;26.00;29.10;;;;;;5525604;25;20646;-71
2024/04/11 09:58:04;;;;;;;3.30;1.70;;;26.10;29.30;;;;;;5525448;25;20494;-72
2024/04/11 10:00:48;;;;;;;4.87;2.10;;;25.70;28.30;;;;;;5525460;25;20449;-71
2024/04/11 10:03:19;;;;;;;5.37;2.00;;;25.40;28.80;;;;;;5525823;25;20453;-72
2024/04/11 10:05:46;;;;;;;4.37;1.57;;;24.90;27.90;;;;;;5525683;25;20477;-71
2024/04/11 10:08:27;;;;;;;3.73;1.90;;;24.30;28.60;;;;;;5525517;25;20434;-71
2024/04/11 10:10:54;;;;;;;4.90;1.60;;;23.80;28.80;;;;;;5529208;25;20446;-72
2024/04/11 10:13:25;;;;;;;3.20;1.80;;;23.50;29.50;;;;;;5529321;25;20563;-71
2024/04/11 10:16:04;;;;;;;2.73;1.40;;;23.70;30.00;;;;;;5529227;25;20513;-71
2024/04/11 10:18:45;;;;;;;2.43;1.17;;;23.50;29.00;;;;;;5529116;25;20494;-71
2024/04/11 10:21:12;;;;;;;2.53;1.37;;;23.10;28.70;;;;;;5528979;25;20633;-71
2024/04/11 10:23:42;;;;;;;3.43;1.87;;;22.80;29.70;;;;;;5529080;25;20566;-71
2024/04/11 10:26:14;;;;;;;2.70;1.37;;;22.50;29.90;;;;;;5529075;25;20830;-71
2024/04/11 10:28:51;;;;;;;4.53;1.77;;;22.30;31.90;;;;;;5527904;26;20570;-71
2024/04/11 10:31:25;;;;;;;3.40;1.43;;;22.40;31.40;;;;;;5528820;25;20457;-71
2024/04/11 10:33:58;;;;;;;4.70;1.90;;;22.30;31.80;;;;;;5529176;25;20839;-71
2024/04/11 10:36:32;;;;;;;2.70;1.30;;;22.20;31.40;;;;;;5528860;25;20620;-72
2024/04/11 10:39:01;;;;;;;3.80;1.50;;;22.00;32.20;;;;;;5528972;25;20446;-71
2024/04/11 10:41:31;;;;;;;6.43;1.60;;;22.10;33.00;;;;;;5526146;25;20776;-71
2024/04/11 10:44:02;;;;;;;3.20;1.17;;;22.20;31.60;;;;;;5528983;25;20516;-72
2024/04/11 10:46:31;;;;;;;3.00;1.20;;;22.50;32.40;;;;;;5528760;25;20567;-71
2024/04/11 10:49:12;;;;;;;4.00;1.80;;;22.80;33.30;;;;;;5528674;25;20928;-71
2024/04/11 10:51:38;;;;;;;3.60;1.50;;;23.20;33.30;;;;;;5529025;25;20454;-71
2024/04/11 10:54:12;;;;;;;3.00;1.50;;;23.70;31.80;;;;;;5528887;25;20445;-71
2024/04/11 10:56:41;;;;;;;3.80;1.90;;;24.00;30.90;;;;;;5528699;25;20457;-71
2024/04/11 10:59:17;;;;;;;4.90;1.30;;;24.30;29.70;;;;;;5528399;25;20450;-71
2024/04/11 11:01:50;;;;;;;2.97;1.40;;;24.60;30.60;;;;;;5528775;25;20498;-71
2024/04/11 11:04:21;;;;;;;5.30;1.53;;;24.80;29.10;;;;;;5528443;26;20494;-71
2024/04/11 11:06:51;;;;;;;3.70;1.70;;;25.00;28.30;;;;;;5528289;25;20562;-72
2024/04/11 11:09:20;;;;;;;3.33;1.70;;;25.20;29.50;;;;;;5528730;25;20449;-71
2024/04/11 11:11:47;;;;;;;7.47;1.50;;;25.40;28.90;;;;;;5528390;25;20454;-71
2024/04/11 11:14:18;;;;;;;4.40;1.63;;;25.70;29.10;;;;;;5528276;25;20502;-71
2024/04/11 11:16:47;;;;;;;3.80;1.50;;;25.90;28.70;;;;;;5528281;25;20446;-71
2024/04/11 11:19:16;;;;;;;3.70;1.20;;;25.90;28.80;;;;;;5528023;25;20561;-71
2024/04/11 11:21:50;;;;;;;3.90;1.60;;;26.10;27.60;;;;;;5528042;25;20457;-71
2024/04/11 11:24:23;;;;;;;3.60;1.50;;;26.00;26.00;;;;;;5528879;25;20447;-72
2024/04/11 11:26:54;;;;;;;4.97;1.80;;;25.70;26.60;;;;;;5528205;26;20465;-71
2024/04/11 11:29:25;;;;;;;2.73;1.30;;;25.60;27.50;;;;;;5528055;25;20884;-71
2024/04/11 11:32:01;;;;;;;4.73;1.60;;;25.50;27.30;;;;;;5527735;25;20490;-71
2024/04/11 11:34:31;;;;;;;3.00;1.33;;;25.40;27.00;;;;;;5527336;25;20441;-72
2024/04/11 11:37:00;;;;;;;5.47;1.53;;;25.40;29.20;;;;;;5528024;25;20446;-71
2024/04/11 11:39:33;;;;;;;8.17;2.83;;;25.50;28.50;;;;;;5527942;25;20497;-71
2024/04/11 11:42:09;;;;;;;4.87;1.70;;;25.40;28.60;;;;;;5527439;25;20554;-71
2024/04/11 11:45:05;;;;;;;4.53;1.90;;;25.50;28.00;;;;;;5527695;25;20446;-71
2024/04/11 11:47:33;;;;;;;6.60;1.70;;;25.60;27.60;;;;;;5527586;26;20531;-71
2024/04/11 11:50:07;;;;;;;5.07;1.40;;;25.70;27.10;;;;;;5527414;25;20849;-71
2024/04/11 11:52:35;;;;;;;3.30;1.37;;;25.80;28.50;;;;;;5527414;25;20450;-71
2024/04/11 11:55:04;;;;;;;4.60;1.40;;;25.90;29.40;;;;;;5528069;25;20445;-71
2024/04/11 11:57:39;;;;;;;4.97;1.63;;;25.90;28.60;;;;;;5527324;25;20454;-72
2024/04/11 12:00:18;;;;;;;4.57;1.90;;;26.00;27.40;;;;;;5527220;25;20453;-71
2024/04/11 12:02:50;;;;;;;3.83;1.53;;;25.80;27.50;;;;;;5527672;25;21045;-71
2024/04/11 12:05:23;;;;;;;3.33;1.50;;;25.70;26.80;;;;;;5527330;25;20454;-71
2024/04/11 12:07:52;;;;;;;5.10;1.87;;;25.60;28.10;;;;;;5527299;25;20971;-71
2024/04/11 12:10:29;;;;;;;2.90;1.40;;;25.70;27.30;;;;;;5527568;25;20450;-71
2024/04/11 12:13:10;;;;;;;3.90;1.70;;;25.80;28.40;;;;;;5527081;25;20517;-71
2024/04/11 12:15:40;;;;;;;5.47;2.10;;;25.80;28.30;;;;;;5527656;25;20453;-71
2024/04/11 12:18:11;;;;;;;6.37;1.80;;;25.80;27.90;;;;;;5527107;25;21029;-71
2024/04/11 12:20:43;;;;;;;3.40;1.33;;;25.90;28.60;;;;;;5527237;25;20449;-71
2024/04/11 12:23:09;;;;;;;4.00;1.70;;;25.90;27.20;;;;;;5527241;25;20816;-71
2024/04/11 12:25:38;;;;;;;3.80;1.80;;;25.90;26.10;;;;;;5526975;25;20566;-71
2024/04/11 12:28:04;;;;;;;2.80;1.23;;;25.80;26.20;;;;;;5526945;25;20461;-71
2024/04/11 12:30:33;;;;;;;3.37;1.67;;;25.50;28.00;;;;;;5526710;25;20497;-71
2024/04/11 12:33:00;;;;;;;3.70;1.50;;;25.50;29.10;;;;;;5525742;25;20445;-71
2024/04/11 12:35:41;;;;;;;3.23;1.43;;;25.30;28.80;;;;;;5526867;25;20550;-71
2024/04/11 12:38:12;;;;;;;2.90;1.20;;;25.20;27.90;;;;;;5526762;25;20525;-71
2024/04/11 12:40:41;;;;;;;3.53;1.80;;;25.10;29.10;;;;;;5526922;25;20555;-71
2024/04/11 12:43:07;;;;;;;3.80;1.57;;;25.10;28.00;;;;;;5527075;25;20495;-71
2024/04/11 12:45:39;;;;;;;3.13;1.60;;;25.00;27.60;;;;;;5526796;25;20513;-71
2024/04/11 12:48:07;;;;;;;5.47;1.67;;;24.80;29.00;;;;;;5527030;25;20506;-71
2024/04/11 12:50:39;;;;;;;3.57;1.37;;;24.70;28.50;;;;;;5526984;25;20563;-71
2024/04/11 12:53:10;;;;;;;3.50;1.57;;;24.40;28.50;;;;;;5526955;25;20454;-71
2024/04/11 12:55:39;;;;;;;7.00;2.30;;;24.30;29.60;;;;;;5526705;25;20510;-71
2024/04/11 12:58:06;;;;;;;4.90;2.03;;;24.30;29.20;;;;;;5526950;25;20446;-71
2024/04/11 13:00:43;;;;;;;4.47;1.40;;;24.30;29.00;;;;;;5526483;25;20546;-71
2024/04/11 13:03:15;;;;;;;3.03;1.50;;;24.30;28.90;;;;;;5526566;25;21031;-71
2024/04/11 13:05:51;;;;;;;7.20;1.53;;;24.30;29.10;;;;;;5526492;25;21040;-71